Portada
METAR-TAF:

METAR-TAF

Aeroports :

Kano, Nigèria

latitud: 12-03N, longitud: 008-32E, altitud: 476 m

Observació

L'informe es va fer fa 41 minuts, a les 20:00 UTC
Vent calma
Temperatura 30°C
Humitat 35%
Pressió 1011 hPa
Visibilitat: 5000 m
calitja

METAR: DNKN 302000Z 00000KT 5000 HZ NSC 30/13 Q1011 NOSIG

Hora: 21:41 (20:41 UTC)

Pronòstic

L'informe es va fer fa 15 hores i 41 minuts, a les 05:00 UTC
Pronòstic vàlid del 30 a les 06 UTC al 31 a les 12 UTC
Vent 4 kt del Est
Visibilitat: 5000 m
calitja
Temporalment
l' 30 a les 08 UTC al 30 a les 13 UTC
Vent 6 kt del Sud/Sud-Oest
Visibilitat: 8000 m

TAF: DNKN 300500Z 3006/3112 08004KT 5000 HZ NSC TEMPO 3008/3013 21006KT 8000 NSW

Observacions i pronòstics meteorològics de més de 4000 aeroports (METAR i TAF).

Les estacions disponibles són els punts grocs i vermells al mapa.

Posi el ratolí al punt desitjat per veure el nom de l'estació.

Feu clic per veure les observacions i els pronòstics meteorològics.

Per canviar el mapa: feu clic els botons verds amb una creu de color negre per apropar; al botó verd amb un guió per allunyar la imatge; o en les fletxes verdes per a mapes adjacents.


METAR-TAF: